Time;durP1;ratioP1;P1;durP2;ratioP2;P2;SDS_P1;SDS_P2;PMS_P1;PMS_P2;Temp;Humidity;BMP_temperature;BMP_pressure;BME280_temperature;BME280_humidity;BME280_pressure;Samples;Min_cycle;Max_cycle;Signal;HPM_P1;HPM_P2
2024/04/08 00:02:28;;;;;;;9.37;4.10;;;;;16.20;97081.00;;;;5004603;28;20215;-68
2024/04/08 00:05:16;;;;;;;6.63;3.03;;;;;15.80;97086.00;;;;4987071;28;20631;-69
2024/04/08 00:08:06;;;;;;;4.73;2.27;;;;;15.20;97070.00;;;;4999474;28;20218;-68
2024/04/08 00:10:54;;;;;;;5.47;2.50;;;;;14.90;97068.00;;;;4994219;28;20225;-69
2024/04/08 00:13:41;;;;;;;6.67;3.00;;;;;14.80;97054.00;;;;5007155;28;20260;-68
2024/04/08 00:16:30;;;;;;;10.57;4.73;;;;;15.00;97068.00;;;;4995724;28;20213;-68
2024/04/08 00:19:18;;;;;;;7.57;3.40;;;;;15.20;97075.00;;;;4993337;28;20574;-69
2024/04/08 00:22:05;;;;;;;6.27;2.90;;;;;15.80;97082.00;;;;5004675;28;20198;-68
2024/04/08 00:24:55;;;;;;;15.23;6.47;;;;;15.60;97066.00;;;;5004783;28;20205;-68
2024/04/08 00:27:42;;;;;;;4.00;2.10;;;;;15.40;97072.00;;;;5004710;28;20233;-68
2024/04/08 00:30:30;;;;;;;13.60;6.07;;;;;15.50;97073.00;;;;4994538;28;20711;-68
2024/04/08 00:33:17;;;;;;;8.00;3.67;;;;;15.00;97066.00;;;;4989389;28;20249;-68
2024/04/08 00:36:06;;;;;;;6.13;3.10;;;;;15.30;97074.00;;;;4996574;28;20203;-68
2024/04/08 00:38:53;;;;;;;6.60;3.00;;;;;15.80;97071.00;;;;5001518;28;20202;-68
2024/04/08 00:41:43;;;;;;;6.47;3.00;;;;;15.70;97071.00;;;;4989288;28;20213;-68
2024/04/08 00:44:30;;;;;;;8.20;4.00;;;;;15.50;97066.00;;;;4995450;28;20202;-68
2024/04/08 00:47:18;;;;;;;12.83;5.73;;;;;15.30;97068.00;;;;4986824;28;20260;-68
2024/04/08 00:50:06;;;;;;;6.33;3.23;;;;;15.20;97067.00;;;;4994364;28;20217;-68
2024/04/08 00:52:55;;;;;;;8.27;4.33;;;;;15.20;97061.00;;;;4993369;28;20202;-69
2024/04/08 00:55:42;;;;;;;7.10;3.10;;;;;15.30;97055.00;;;;4988344;28;20264;-68
2024/04/08 00:58:32;;;;;;;8.30;3.73;;;;;15.30;97060.00;;;;5007827;28;20675;-68
2024/04/08 01:01:19;;;;;;;11.63;6.40;;;;;15.30;97053.00;;;;4995277;28;20236;-68
2024/04/08 01:04:08;;;;;;;5.70;3.87;;;;;15.40;97055.00;;;;4997421;28;20213;-68
2024/04/08 01:06:55;;;;;;;30.63;13.47;;;;;14.70;97051.00;;;;5035065;23;20217;-70
2024/04/08 01:09:44;;;;;;;7.97;4.73;;;;;14.80;97047.00;;;;4993316;28;20232;-69
2024/04/08 01:13:57;;;;;;;5.87;3.57;;;;;14.80;97054.00;;;;5528887;25;20577;-70
2024/04/08 01:16:45;;;;;;;6.60;4.57;;;;;15.00;97043.00;;;;5487603;25;20834;-70
2024/04/08 01:19:36;;;;;;;11.00;5.30;;;;;15.10;97043.00;;;;5476100;26;20296;-69
2024/04/08 01:22:26;;;;;;;16.43;7.53;;;;;15.10;97035.00;;;;5463946;26;20270;-70
2024/04/08 01:25:20;;;;;;;10.63;8.03;;;;;14.90;97040.00;;;;5489443;26;20261;-70
2024/04/08 01:28:08;;;;;;;9.00;6.10;;;;;15.40;97038.00;;;;5492968;25;20281;-70
2024/04/08 01:31:00;;;;;;;9.83;5.17;;;;;15.50;97041.00;;;;5498468;26;20758;-71
2024/04/08 01:33:48;;;;;;;6.40;3.13;;;;;15.10;97038.00;;;;5488509;26;20281;-70
2024/04/08 01:36:39;;;;;;;5.80;2.63;;;;;14.70;97038.00;;;;5496095;26;20590;-70
2024/04/08 01:39:30;;;;;;;13.83;5.67;;;;;14.20;97030.00;;;;5494745;26;20286;-71
2024/04/08 01:42:20;;;;;;;11.17;5.47;;;;;14.90;97027.00;;;;5490023;26;20231;-70
2024/04/08 01:45:11;;;;;;;6.30;4.60;;;;;14.80;97029.00;;;;5493720;26;20281;-71
2024/04/08 01:48:00;;;;;;;8.80;4.90;;;;;14.50;97030.00;;;;5490370;25;20226;-71
2024/04/08 01:50:50;;;;;;;5.03;3.10;;;;;14.20;97022.00;;;;5484226;26;20277;-71
2024/04/08 01:53:41;;;;;;;8.10;4.93;;;;;14.40;97016.00;;;;5496417;26;20270;-70
2024/04/08 01:56:30;;;;;;;14.27;6.63;;;;;14.40;97026.00;;;;5496567;26;20368;-69
2024/04/08 01:59:23;;;;;;;11.03;6.40;;;;;14.50;97012.00;;;;5496266;26;20303;-71
2024/04/08 02:02:11;;;;;;;10.27;5.23;;;;;14.60;97014.00;;;;5495803;26;20231;-70
2024/04/08 02:05:02;;;;;;;5.80;4.67;;;;;14.40;97014.00;;;;5497455;26;20220;-70
2024/04/08 02:07:50;;;;;;;8.07;6.87;;;;;14.50;97016.00;;;;5497182;25;20886;-70
2024/04/08 02:10:41;;;;;;;6.80;2.90;;;;;14.10;97015.00;;;;5484254;26;20223;-70
2024/04/08 02:13:32;;;;;;;13.97;6.27;;;;;13.80;97011.00;;;;5493204;26;20353;-70
2024/04/08 02:16:23;;;;;;;14.10;8.10;;;;;14.00;97011.00;;;;5496995;26;20269;-70
2024/04/08 02:19:14;;;;;;;6.10;2.93;;;;;14.40;97012.00;;;;5496427;26;20282;-70
2024/04/08 02:22:02;;;;;;;7.03;3.77;;;;;14.60;97000.00;;;;5491388;26;20231;-70
2024/04/08 02:24:53;;;;;;;9.87;8.90;;;;;14.60;97009.00;;;;5482073;26;20616;-69
2024/04/08 02:27:42;;;;;;;9.17;7.87;;;;;14.60;97008.00;;;;5481467;26;20727;-70
2024/04/08 02:30:35;;;;;;;14.57;8.70;;;;;14.60;97007.00;;;;5482702;26;20224;-70
2024/04/08 02:33:29;;;;;;;16.03;7.70;;;;;14.20;97004.00;;;;5477613;26;20630;-70
2024/04/08 02:36:17;;;;;;;11.07;9.43;;;;;14.00;97000.00;;;;5479205;26;20277;-69
2024/04/08 02:39:08;;;;;;;8.07;4.30;;;;;14.40;96990.00;;;;5480752;26;20605;-70
2024/04/08 02:41:56;;;;;;;6.37;2.63;;;;;14.10;96998.00;;;;5479471;26;20278;-70
2024/04/08 02:44:47;;;;;;;7.70;3.63;;;;;13.70;96990.00;;;;5479935;26;20277;-70
2024/04/08 02:47:36;;;;;;;20.10;18.23;;;;;13.10;96990.00;;;;5481463;26;20769;-69
2024/04/08 02:50:29;;;;;;;18.03;14.50;;;;;12.90;96998.00;;;;5477141;26;20279;-69
2024/04/08 02:53:18;;;;;;;15.03;13.80;;;;;13.00;96993.00;;;;5481316;26;20697;-70
2024/04/08 02:56:09;;;;;;;8.40;7.33;;;;;13.30;96980.00;;;;5482002;26;20278;-70
2024/04/08 02:58:57;;;;;;;8.73;7.87;;;;;12.70;96984.00;;;;5473498;26;20591;-71
2024/04/08 03:01:50;;;;;;;12.90;11.63;;;;;13.20;96986.00;;;;5470357;26;20224;-70
2024/04/08 03:04:38;;;;;;;90.90;78.00;;;;;13.80;96990.00;;;;5479622;26;20281;-70
2024/04/08 03:07:32;;;;;;;72.50;66.13;;;;;13.80;97002.00;;;;5478532;26;20801;-70
2024/04/08 03:10:20;;;;;;;64.47;59.20;;;;;13.70;96993.00;;;;5476737;26;20232;-70
2024/04/08 03:13:11;;;;;;;23.40;21.60;;;;;14.10;96998.00;;;;5481883;26;20237;-70
2024/04/08 03:15:59;;;;;;;9.30;6.37;;;;;14.20;96998.00;;;;5476011;26;20287;-70
2024/04/08 03:18:50;;;;;;;7.87;3.73;;;;;14.40;97004.00;;;;5468943;26;20281;-70
2024/04/08 03:21:38;;;;;;;8.90;3.87;;;;;14.40;97002.00;;;;5480555;26;20270;-70
2024/04/08 03:24:33;;;;;;;13.80;5.47;;;;;14.10;97000.00;;;;5479129;26;20223;-70
2024/04/08 03:27:21;;;;;;;13.13;5.13;;;;;14.20;97002.00;;;;5478712;26;20287;-69
2024/04/08 03:30:12;;;;;;;7.53;3.20;;;;;14.40;97003.00;;;;5482814;26;20279;-70
2024/04/08 03:33:00;;;;;;;7.23;3.13;;;;;14.10;97001.00;;;;5480942;26;20720;-70
2024/04/08 03:35:51;;;;;;;9.43;4.13;;;;;13.40;96993.00;;;;5469011;26;21094;-70
2024/04/08 03:38:42;;;;;;;6.47;3.00;;;;;13.50;97000.00;;;;5476965;26;20295;-70
2024/04/08 03:41:36;;;;;;;15.97;6.63;;;;;13.50;97002.00;;;;5480758;26;20355;-70
2024/04/08 03:44:27;;;;;;;14.57;6.30;;;;;13.40;96992.00;;;;5479984;26;20287;-70
2024/04/08 03:47:18;;;;;;;12.50;5.97;;;;;13.70;96990.00;;;;5479950;26;20266;-70
2024/04/08 03:50:07;;;;;;;8.70;4.77;;;;;13.90;96991.00;;;;5480175;26;20274;-71
2024/04/08 03:52:58;;;;;;;8.23;4.23;;;;;14.20;96996.00;;;;5471425;26;20301;-69
2024/04/08 03:55:46;;;;;;;6.93;3.70;;;;;13.80;96986.00;;;;5478694;26;20231;-70
2024/04/08 03:58:41;;;;;;;14.37;6.30;;;;;14.00;96985.00;;;;5475497;26;20231;-71
2024/04/08 04:01:29;;;;;;;10.37;5.27;;;;;14.00;96988.00;;;;5478252;26;20274;-70
2024/04/08 04:04:20;;;;;;;6.67;4.47;;;;;14.20;96991.00;;;;5480361;26;20277;-70
2024/04/08 04:11:27;;;;;;;11.07;6.77;;;;;13.80;96990.00;;;;5407726;26;20245;-70
2024/04/08 04:14:18;;;;;;;11.37;10.00;;;;;13.50;96993.00;;;;5440846;26;20360;-70
2024/04/08 04:17:09;;;;;;;23.10;21.17;;;;;13.20;96984.00;;;;5462117;26;20893;-69
2024/04/08 04:19:57;;;;;;;96.37;88.00;;;;;13.00;96983.00;;;;5446358;26;20233;-71
2024/04/08 04:22:48;;;;;;;7.07;3.63;;;;;13.10;96979.00;;;;5446727;26;20778;-71
2024/04/08 04:25:36;;;;;;;13.83;9.90;;;;;13.00;96984.00;;;;5458220;26;20232;-70
2024/04/08 04:28:27;;;;;;;11.53;5.07;;;;;13.40;96984.00;;;;5444395;26;20245;-70
2024/04/08 04:31:18;;;;;;;12.90;10.73;;;;;13.30;96982.00;;;;5449732;26;20232;-71
2024/04/08 04:34:09;;;;;;;18.60;17.30;;;;;13.30;96983.00;;;;5455344;26;20279;-70
2024/04/08 04:36:57;;;;;;;35.03;32.07;;;;;12.60;96990.00;;;;5456784;26;20297;-70
2024/04/08 04:39:48;;;;;;;63.80;59.40;;;;;12.90;96988.00;;;;5453815;26;20275;-70
2024/04/08 04:42:36;;;;;;;57.73;53.43;;;;;13.40;96997.00;;;;5457000;26;20276;-68
2024/04/08 04:45:27;;;;;;;61.30;56.03;;;;;13.40;96989.00;;;;5441606;26;20233;-70
2024/04/08 04:48:18;;;;;;;133.00;113.57;;;;;13.60;96997.00;;;;5442591;26;20309;-69
2024/04/08 04:51:09;;;;;;;119.97;100.47;;;;;13.20;96988.00;;;;5457815;26;20261;-70
2024/04/08 04:53:57;;;;;;;22.40;13.83;;;;;12.90;97001.00;;;;5435246;26;20625;-70
2024/04/08 04:56:48;;;;;;;7.60;3.00;;;;;12.50;96990.00;;;;5443114;26;20225;-70
2024/04/08 04:59:36;;;;;;;7.87;3.43;;;;;12.70;96999.00;;;;5445076;26;20229;-70
2024/04/08 05:02:27;;;;;;;9.67;4.07;;;;;13.00;96997.00;;;;5458244;26;20354;-69
2024/04/08 05:05:18;;;;;;;5.53;2.33;;;;;12.80;97000.00;;;;5469377;26;20299;-70
2024/04/08 05:08:09;;;;;;;6.43;2.57;;;;;13.00;96999.00;;;;5451810;26;20228;-70
2024/04/08 05:11:00;;;;;;;5.13;2.10;;;;;13.30;96991.00;;;;5453789;26;20600;-69
2024/04/08 05:13:48;;;;;;;8.03;3.17;;;;;13.60;96998.00;;;;5455759;26;20250;-71
2024/04/08 05:16:39;;;;;;;5.40;2.33;;;;;13.80;96993.00;;;;5456626;26;20267;-69
2024/04/08 05:19:27;;;;;;;8.13;3.43;;;;;13.90;96998.00;;;;5457490;26;20279;-71
2024/04/08 05:22:23;;;;;;;5.03;2.13;;;;;13.60;97005.00;;;;5460546;26;20284;-70
2024/04/08 05:25:11;;;;;;;5.53;2.43;;;;;13.40;97002.00;;;;5441788;26;20236;-70
2024/04/08 05:28:02;;;;;;;5.93;2.47;;;;;13.60;97007.00;;;;5444498;26;20233;-70
2024/04/08 05:30:50;;;;;;;6.67;2.87;;;;;13.50;97005.00;;;;5439287;26;20601;-70
2024/04/08 05:33:41;;;;;;;5.77;2.47;;;;;13.40;97008.00;;;;5442134;26;20229;-69
2024/04/08 05:36:32;;;;;;;7.77;3.33;;;;;13.10;97008.00;;;;5441126;26;20568;-70
2024/04/08 05:39:27;;;;;;;6.87;2.87;;;;;13.10;97006.00;;;;5450919;26;20228;-69
2024/04/08 05:42:15;;;;;;;3.80;1.83;;;;;13.60;97018.00;;;;5453794;26;20282;-70
2024/04/08 05:45:07;;;;;;;3.73;1.73;;;;;13.70;97016.00;;;;5442914;26;20812;-69
2024/04/08 05:47:55;;;;;;;5.37;2.47;;;;;13.60;97007.00;;;;5446335;26;20300;-70
2024/04/08 05:50:48;;;;;;;4.33;2.03;;;;;13.70;97010.00;;;;5436841;26;20312;-69
2024/04/08 05:53:36;;;;;;;7.47;3.30;;;;;14.10;97014.00;;;;5445546;26;20500;-69
2024/04/08 05:56:29;;;;;;;7.20;3.13;;;;;14.50;97002.00;;;;5441676;26;20300;-70
2024/04/08 05:59:18;;;;;;;6.03;2.53;;;;;14.70;97000.00;;;;5443906;26;20288;-70
2024/04/08 06:02:10;;;;;;;6.97;3.07;;;;;14.50;96999.00;;;;5443352;26;20729;-70
2024/04/08 06:04:58;;;;;;;5.57;2.40;;;;;14.40;97000.00;;;;5446703;26;20275;-69
2024/04/08 06:07:49;;;;;;;7.53;3.37;;;;;14.30;96996.00;;;;5447164;26;20756;-70
2024/04/08 06:10:44;;;;;;;7.43;3.30;;;;;14.20;96990.00;;;;5443572;26;20279;-69
2024/04/08 06:13:38;;;;;;;6.17;2.70;;;;;14.50;96988.00;;;;5447744;26;20288;-69
2024/04/08 06:16:26;;;;;;;11.93;4.93;;;;;14.40;96988.00;;;;5446728;26;20225;-70
2024/04/08 06:19:17;;;;;;;5.93;2.63;;;;;14.60;97001.00;;;;5438764;26;20289;-70
2024/04/08 06:22:05;;;;;;;5.87;2.57;;;;;14.70;96990.00;;;;5443769;26;20610;-70
2024/04/08 06:24:56;;;;;;;6.03;2.70;;;;;15.00;97000.00;;;;5449540;26;20233;-70
2024/04/08 06:27:46;;;;;;;6.47;2.83;;;;;15.40;96998.00;;;;5449606;26;20258;-70
2024/04/08 06:30:40;;;;;;;8.57;3.60;;;;;15.40;96999.00;;;;5454446;26;20734;-70
2024/04/08 06:33:29;;;;;;;8.57;3.77;;;;;15.50;96999.00;;;;5448847;26;20225;-69
2024/04/08 06:36:21;;;;;;;4.90;2.20;;;;;15.70;96990.00;;;;5447553;26;20233;-70
2024/04/08 06:39:09;;;;;;;4.60;2.03;;;;;16.00;97002.00;;;;5436196;26;20244;-69
2024/04/08 06:42:00;;;;;;;4.80;2.27;;;;;16.20;97006.00;;;;5438690;26;20240;-69
2024/04/08 06:44:48;;;;;;;4.23;1.90;;;;;16.50;97000.00;;;;5445413;26;20229;-69
2024/04/08 06:47:42;;;;;;;6.70;3.10;;;;;16.50;96997.00;;;;5444493;26;20229;-70
2024/04/08 06:50:30;;;;;;;13.80;6.03;;;;;16.90;97002.00;;;;5447873;26;20312;-69
2024/04/08 06:53:22;;;;;;;6.47;2.83;;;;;17.20;97006.00;;;;5437271;26;20284;-69
2024/04/08 06:56:10;;;;;;;8.80;3.63;;;;;17.60;97000.00;;;;5441012;26;20286;-71
2024/04/08 06:59:01;;;;;;;9.43;3.93;;;;;17.80;97007.00;;;;5443603;26;20294;-70
2024/04/08 07:01:49;;;;;;;7.20;3.30;;;;;18.40;97000.00;;;;5451671;26;20645;-70
2024/04/08 07:04:43;;;;;;;11.00;4.73;;;;;18.70;97009.00;;;;5447422;26;20270;-70
2024/04/08 07:07:31;;;;;;;8.40;3.77;;;;;18.90;97004.00;;;;5452605;26;20769;-69
2024/04/08 07:10:23;;;;;;;6.30;2.87;;;;;19.20;97000.00;;;;5437415;26;20240;-70
2024/04/08 07:13:11;;;;;;;5.70;2.57;;;;;19.50;96993.00;;;;5431724;26;20238;-69
2024/04/08 07:16:03;;;;;;;5.63;2.67;;;;;19.40;96981.00;;;;5443187;26;20232;-70
2024/04/08 07:18:51;;;;;;;7.00;3.33;;;;;19.50;96990.00;;;;5448791;26;20794;-69
2024/04/08 07:21:45;;;;;;;13.73;6.77;;;;;19.60;96987.00;;;;5445152;26;20228;-70
2024/04/08 07:24:34;;;;;;;76.93;71.93;;;;;19.70;96986.00;;;;5447234;26;20288;-69
2024/04/08 07:27:25;;;;;;;23.63;21.77;;;;;19.30;96985.00;;;;5443866;26;20770;-70
2024/04/08 07:30:14;;;;;;;93.13;87.30;;;;;19.40;96981.00;;;;5434435;26;20237;-69
2024/04/08 07:33:04;;;;;;;8.33;7.10;;;;;19.90;96988.00;;;;5445196;26;20278;-70
2024/04/08 07:35:53;;;;;;;6.70;3.13;;;;;19.70;96981.00;;;;5445143;26;20220;-71
2024/04/08 07:38:47;;;;;;;7.67;3.63;;;;;19.80;96978.00;;;;5446742;26;20781;-69
2024/04/08 07:41:43;;;;;;;7.30;3.23;;;;;19.50;96985.00;;;;5439746;26;20235;-70
2024/04/08 07:44:34;;;;;;;10.50;4.63;;;;;20.00;96974.00;;;;5438423;26;20304;-69
2024/04/08 07:47:22;;;;;;;12.57;5.27;;;;;20.20;96982.00;;;;5441382;26;20354;-69
2024/04/08 07:50:13;;;;;;;5.77;2.50;;;;;20.60;96986.00;;;;5443480;26;20774;-70
2024/04/08 07:53:02;;;;;;;6.93;3.13;;;;;20.70;96985.00;;;;5446413;26;20224;-70
2024/04/08 07:55:56;;;;;;;6.33;3.07;;;;;21.40;96982.00;;;;5442203;26;20288;-70
2024/04/08 07:58:45;;;;;;;10.60;4.47;;;;;21.80;96983.00;;;;5436385;26;20241;-70
2024/04/08 08:01:36;;;;;;;7.10;3.40;;;;;22.10;96977.00;;;;5443079;26;20240;-70
2024/04/08 08:04:24;;;;;;;11.53;5.13;;;;;22.40;96980.00;;;;5437323;26;20313;-70
2024/04/08 08:07:15;;;;;;;14.50;6.70;;;;;22.50;96975.00;;;;5443883;26;20733;-70
2024/04/08 08:10:06;;;;;;;5.47;3.07;;;;;22.70;96974.00;;;;5435568;26;20229;-70
2024/04/08 08:13:00;;;;;;;7.53;3.90;;;;;22.90;96966.00;;;;5448721;26;20320;-69
2024/04/08 08:15:57;;;;;;;6.57;3.13;;;;;23.00;96961.00;;;;5444082;26;20619;-69
2024/04/08 08:18:48;;;;;;;9.37;4.10;;;;;23.20;96970.00;;;;5442736;26;20300;-70
2024/04/08 08:21:39;;;;;;;11.57;5.07;;;;;23.60;96954.00;;;;5442257;26;20340;-70
2024/04/08 08:24:30;;;;;;;8.50;3.90;;;;;23.60;96961.00;;;;5450472;26;20229;-70
2024/04/08 08:27:21;;;;;;;10.80;4.83;;;;;23.40;96951.00;;;;5440256;26;20229;-70
2024/04/08 08:30:15;;;;;;;8.03;3.73;;;;;23.10;96960.00;;;;5439839;26;20233;-70
2024/04/08 08:33:06;;;;;;;6.57;2.90;;;;;23.40;96945.00;;;;5444362;26;20725;-70
2024/04/08 08:35:57;;;;;;;7.00;3.03;;;;;24.20;96952.00;;;;5449910;26;20278;-70
2024/04/08 08:38:45;;;;;;;7.87;3.63;;;;;24.10;96955.00;;;;5441017;26;20232;-70
2024/04/08 08:41:37;;;;;;;12.00;5.43;;;;;24.30;96955.00;;;;5445060;26;20233;-70
2024/04/08 08:44:25;;;;;;;5.07;2.57;;;;;24.60;96957.00;;;;5447038;26;20342;-69
2024/04/08 08:47:19;;;;;;;14.20;6.20;;;;;24.80;96948.00;;;;5438643;26;20269;-70
2024/04/08 08:50:11;;;;;;;3.90;1.97;;;;;24.80;96945.00;;;;5447342;26;20224;-70
2024/04/08 08:53:02;;;;;;;4.30;2.00;;;;;25.20;96950.00;;;;5442124;26;20286;-70
2024/04/08 08:55:51;;;;;;;5.50;3.00;;;;;25.70;96945.00;;;;5439609;26;20221;-70
2024/04/08 08:58:42;;;;;;;11.13;5.33;;;;;26.00;96947.00;;;;5443075;26;20294;-69
2024/04/08 09:01:31;;;;;;;10.03;4.60;;;;;26.10;96943.00;;;;5448159;26;21070;-70
2024/04/08 09:04:26;;;;;;;5.80;3.03;;;;;26.20;96942.00;;;;5446359;26;20596;-71
2024/04/08 09:07:14;;;;;;;10.53;5.50;;;;;26.30;96942.00;;;;5438586;26;20582;-70
2024/04/08 09:10:06;;;;;;;8.70;4.40;;;;;26.40;96944.00;;;;5446482;26;20275;-69
2024/04/08 09:12:54;;;;;;;9.53;4.73;;;;;26.40;96939.00;;;;5444719;26;20291;-70
2024/04/08 09:15:45;;;;;;;7.80;4.10;;;;;26.20;96945.00;;;;5435249;26;20280;-70
2024/04/08 09:18:33;;;;;;;10.20;4.97;;;;;26.40;96948.00;;;;5441383;26;20287;-69
2024/04/08 09:21:27;;;;;;;6.47;3.43;;;;;26.80;96937.00;;;;5440451;26;20287;-69
2024/04/08 09:24:15;;;;;;;7.77;4.17;;;;;27.10;96935.00;;;;5443156;26;20229;-69
2024/04/08 09:27:06;;;;;;;8.37;3.87;;;;;27.40;96937.00;;;;5447242;26;20263;-69
2024/04/08 09:29:54;;;;;;;7.27;3.60;;;;;27.40;96932.00;;;;5447439;26;20233;-69
2024/04/08 09:32:45;;;;;;;5.50;3.43;;;;;27.70;96931.00;;;;5444407;26;20229;-69
2024/04/08 09:35:39;;;;;;;8.67;4.67;;;;;28.00;96933.00;;;;5450501;26;20234;-69
2024/04/08 09:38:34;;;;;;;12.00;5.63;;;;;27.60;96929.00;;;;5438933;26;20238;-69
2024/04/08 09:41:22;;;;;;;6.97;3.30;;;;;28.00;96922.00;;;;5445005;26;20229;-70
2024/04/08 09:44:16;;;;;;;4.40;2.50;;;;;28.40;96923.00;;;;5442210;26;20338;-69
2024/04/08 09:47:07;;;;;;;10.57;4.70;;;;;28.50;96923.00;;;;5445169;26;20746;-69
2024/04/08 09:49:57;;;;;;;5.30;2.77;;;;;28.90;96911.00;;;;5445850;26;20286;-69
2024/04/08 09:52:47;;;;;;;7.67;5.30;;;;;28.70;96896.00;;;;5448353;26;20227;-70
2024/04/08 09:55:39;;;;;;;10.57;6.07;;;;;28.60;96903.00;;;;5443257;26;20232;-70
2024/04/08 09:58:34;;;;;;;11.17;5.70;;;;;27.40;96896.00;;;;5446794;26;20238;-69
2024/04/08 10:01:22;;;;;;;6.27;3.00;;;;;28.00;96892.00;;;;5440201;26;20228;-70
2024/04/08 10:04:17;;;;;;;7.80;4.30;;;;;27.20;96888.00;;;;5447183;26;20285;-70
2024/04/08 10:07:06;;;;;;;7.87;4.43;;;;;28.10;96885.00;;;;5449258;26;20599;-70
2024/04/08 10:09:57;;;;;;;8.87;4.47;;;;;28.70;96877.00;;;;5443286;26;20239;-69
2024/04/08 10:12:50;;;;;;;5.17;2.53;;;;;29.30;96884.00;;;;5445498;26;20725;-70
2024/04/08 10:15:40;;;;;;;10.30;4.87;;;;;29.60;96875.00;;;;5447967;26;20720;-70
2024/04/08 10:18:29;;;;;;;10.40;4.97;;;;;28.40;96869.00;;;;5455980;26;20240;-69
2024/04/08 10:21:20;;;;;;;7.00;3.37;;;;;28.40;96871.00;;;;5459604;26;20229;-70
2024/04/08 10:27:03;;;;;;;18.37;7.47;;;;;28.40;96859.00;;;;5382301;21;20349;-72
2024/04/08 10:29:59;;;;;;;7.83;3.60;;;;;27.90;96848.00;;;;5363532;26;20293;-70
2024/04/08 10:32:51;;;;;;;8.60;3.77;;;;;27.70;96854.00;;;;5350929;26;20256;-72
2024/04/08 10:35:42;;;;;;;15.13;6.47;;;;;28.80;96839.00;;;;5349403;26;20301;-73
2024/04/08 10:38:30;;;;;;;16.23;6.47;;;;;29.20;96844.00;;;;5347128;26;20282;-71
2024/04/08 10:41:21;;;;;;;8.73;3.63;;;;;29.60;96844.00;;;;5352463;26;20299;-71
2024/04/08 10:44:09;;;;;;;8.40;3.57;;;;;30.40;96844.00;;;;5348486;26;20360;-72
2024/04/08 10:47:03;;;;;;;14.50;6.03;;;;;30.80;96844.00;;;;5353644;26;20227;-72
2024/04/08 10:49:51;;;;;;;11.67;5.53;;;;;31.10;96836.00;;;;5354841;26;20243;-71
2024/04/08 10:52:43;;;;;;;19.57;12.73;;;;;31.20;96832.00;;;;5349031;26;20237;-71
2024/04/08 10:55:31;;;;;;;22.00;19.47;;;;;30.90;96828.00;;;;5356619;26;20241;-72
2024/04/08 10:58:22;;;;;;;14.97;13.67;;;;;31.20;96830.00;;;;5361537;26;20242;-71
2024/04/08 11:01:15;;;;;;;53.63;50.43;;;;;30.80;96819.00;;;;5351489;26;20319;-72
2024/04/08 11:04:05;;;;;;;40.67;38.23;;;;;31.50;96825.00;;;;5355660;26;20243;-73
2024/04/08 11:06:56;;;;;;;53.87;50.37;;;;;32.30;96814.00;;;;5357866;26;20304;-72
2024/04/08 11:09:45;;;;;;;208.40;200.37;;;;;32.50;96813.00;;;;5353924;26;20628;-72
2024/04/08 11:12:36;;;;;;;318.13;305.03;;;;;31.70;96810.00;;;;5354923;26;20237;-72
2024/04/08 11:15:27;;;;;;;173.10;166.40;;;;;31.50;96801.00;;;;5350177;26;20246;-73
2024/04/08 11:18:18;;;;;;;174.13;167.13;;;;;30.80;96800.00;;;;5345026;26;20239;-72
2024/04/08 11:21:09;;;;;;;359.37;343.33;;;;;29.50;96767.00;;;;5351946;26;20301;-72
2024/04/08 11:24:00;;;;;;;216.50;206.33;;;;;29.40;96786.00;;;;5355581;26;20298;-71
2024/04/08 11:26:48;;;;;;;93.77;89.60;;;;;32.10;96778.00;;;;5363278;26;20853;-73
2024/04/08 11:29:44;;;;;;;242.03;231.77;;;;;31.90;96786.00;;;;5349914;26;20279;-72
2024/04/08 11:32:33;;;;;;;500.50;474.43;;;;;31.30;96772.00;;;;5349467;26;20294;-73
2024/04/08 11:35:25;;;;;;;519.00;493.00;;;;;30.90;96774.00;;;;5355508;26;20232;-72
2024/04/08 11:38:16;;;;;;;468.23;446.47;;;;;32.40;96774.00;;;;5351145;26;20231;-72
2024/04/08 11:41:11;;;;;;;81.70;77.60;;;;;33.40;96781.00;;;;5352757;26;20343;-72
2024/04/08 11:43:59;;;;;;;11.75;5.25;;;;;30.90;96764.00;;;;5354793;26;20236;-72
2024/04/08 11:46:50;;;;;;;7.20;3.28;;;;;30.80;96759.00;;;;5357143;26;20798;-71
2024/04/08 11:49:38;;;;;;;11.38;5.25;;;;;33.30;96758.00;;;;5353311;26;20297;-72
2024/04/08 11:52:30;;;;;;;8.23;3.85;;;;;33.90;96762.00;;;;5358383;26;20302;-71
2024/04/08 11:55:21;;;;;;;7.47;3.95;;;;;34.40;96761.00;;;;5357982;26;20242;-72
2024/04/08 11:58:12;;;;;;;11.27;10.32;;;;;34.90;96755.00;;;;5354281;26;20281;-71
2024/04/08 12:01:02;;;;;;;163.40;156.00;;;;;33.70;96749.00;;;;5350081;26;20289;-72
2024/04/08 12:03:53;;;;;;;109.72;104.40;;;;;34.40;96760.00;;;;5364373;26;20297;-72
2024/04/08 12:06:41;;;;;;;511.20;484.08;;;;;34.80;96750.00;;;;5356466;26;20888;-71
2024/04/08 12:09:32;;;;;;;146.88;139.63;;;;;35.40;96748.00;;;;5350598;26;20284;-72
2024/04/08 12:12:23;;;;;;;10.20;5.50;;;;;32.90;96742.00;;;;5350654;26;20232;-71
2024/04/08 12:15:18;;;;;;;4.40;2.42;;;;;32.20;96730.00;;;;5351887;26;20282;-72
2024/04/08 12:18:07;;;;;;;5.78;3.03;;;;;32.80;96762.00;;;;5354811;26;20253;-71
2024/04/08 12:20:57;;;;;;;8.45;3.85;;;;;32.70;96722.00;;;;5345685;26;20291;-71
2024/04/08 12:23:46;;;;;;;11.18;4.80;;;;;34.10;96715.00;;;;5350353;26;20290;-72
2024/04/08 12:26:37;;;;;;;11.57;5.43;;;;;33.40;96724.00;;;;5350724;26;20287;-70
2024/04/08 12:29:27;;;;;;;9.23;7.18;;;;;33.80;96716.00;;;;5357526;26;20232;-72
2024/04/08 12:32:18;;;;;;;25.88;23.55;;;;;33.80;96700.00;;;;5358022;26;20239;-71
2024/04/08 12:35:07;;;;;;;145.57;137.93;;;;;33.50;96691.00;;;;5350417;26;20239;-70
2024/04/08 12:37:58;;;;;;;6.80;3.53;;;;;33.50;96684.00;;;;5348204;26;20270;-71
2024/04/08 12:40:47;;;;;;;6.05;4.60;;;;;33.10;96685.00;;;;5355453;26;20236;-72
2024/04/08 12:43:39;;;;;;;75.28;70.68;;;;;35.60;96680.00;;;;5356941;26;20728;-72
2024/04/08 12:46:32;;;;;;;15.02;12.15;;;;;35.00;96682.00;;;;5348850;26;20308;-72
2024/04/08 12:49:27;;;;;;;176.27;168.05;;;;;34.60;96678.00;;;;5347364;26;20228;-72
2024/04/08 12:52:17;;;;;;;34.60;32.33;;;;;34.30;96679.00;;;;5362678;26;20238;-71
2024/04/08 12:55:09;;;;;;;10.18;8.35;;;;;34.40;96666.00;;;;5351110;26;20652;-71
2024/04/08 12:58:00;;;;;;;16.42;14.90;;;;;36.20;96675.00;;;;5354102;26;20235;-72
2024/04/08 13:00:51;;;;;;;96.00;91.50;;;;;36.30;96684.00;;;;5358269;26;20282;-72
2024/04/08 13:03:42;;;;;;;29.67;27.25;;;;;36.50;96679.00;;;;5351436;26;20812;-72
2024/04/08 13:06:33;;;;;;;24.55;22.42;;;;;34.30;96681.00;;;;5353588;26;20234;-72
2024/04/08 13:09:21;;;;;;;11.25;10.32;;;;;35.20;96695.00;;;;5350252;26;20282;-72
2024/04/08 13:12:12;;;;;;;13.75;11.45;;;;;36.10;96690.00;;;;5355032;26;20729;-72
2024/04/08 13:15:00;;;;;;;8.98;8.25;;;;;35.70;96689.00;;;;5352394;26;20296;-72
2024/04/08 13:17:51;;;;;;;16.73;15.10;;;;;33.60;96674.00;;;;5347498;26;20281;-72
2024/04/08 13:20:42;;;;;;;13.32;12.23;;;;;34.70;96678.00;;;;5353731;26;20242;-72
2024/04/08 13:23:33;;;;;;;16.65;13.05;;;;;36.00;96668.00;;;;5353556;26;20280;-72
2024/04/08 13:26:25;;;;;;;15.27;13.95;;;;;36.30;96643.00;;;;5351421;26;20258;-72
2024/04/08 13:29:14;;;;;;;17.88;16.40;;;;;36.30;96652.00;;;;5354394;26;20299;-72
2024/04/08 13:32:05;;;;;;;27.70;25.25;;;;;36.60;96668.00;;;;5343560;26;20232;-72
2024/04/08 13:34:53;;;;;;;32.22;30.23;;;;;37.00;96650.00;;;;5350289;26;20285;-71
2024/04/08 13:37:47;;;;;;;41.40;38.35;;;;;36.80;96648.00;;;;5347615;26;20232;-72
2024/04/08 13:40:35;;;;;;;67.70;64.32;;;;;36.20;96640.00;;;;5353323;26;20361;-72
2024/04/08 13:43:26;;;;;;;77.03;73.10;;;;;36.50;96646.00;;;;5352242;26;20242;-72
2024/04/08 13:46:17;;;;;;;129.23;123.78;;;;;35.90;96636.00;;;;5350945;26;20236;-71
2024/04/08 13:49:05;;;;;;;148.07;142.07;;;;;35.60;96635.00;;;;5355997;26;22601;-72
2024/04/08 13:51:57;;;;;;;172.90;165.75;;;;;36.90;96644.00;;;;5351394;26;20311;-72
2024/04/08 13:54:51;;;;;;;224.70;215.07;;;;;38.30;96634.00;;;;5356319;26;20289;-72
2024/04/08 13:57:39;;;;;;;434.00;416.15;;;;;38.00;96632.00;;;;5350401;26;20284;-71
2024/04/08 14:00:30;;;;;;;728.92;690.08;;;;;39.00;96625.00;;;;5345250;26;20290;-72
2024/04/08 14:03:18;;;;;;;800.45;757.08;;;;;39.20;96639.00;;;;5352784;26;20077;-71
2024/04/08 14:06:09;;;;;;;773.15;732.42;;;;;38.70;96635.00;;;;5345093;26;20250;-72
2024/04/08 14:08:58;;;;;;;621.92;591.97;;;;;38.70;96615.00;;;;5351327;26;20231;-72
2024/04/08 14:11:52;;;;;;;419.35;401.92;;;;;38.60;96617.00;;;;5349251;26;20255;-72